Time;durP1;ratioP1;P1;durP2;ratioP2;P2;SDS_P1;SDS_P2;PMS_P1;PMS_P2;Temp;Humidity;BMP_temperature;BMP_pressure;BME280_temperature;BME280_humidity;BME280_pressure;Samples;Min_cycle;Max_cycle;Signal;HPM_P1;HPM_P2
2023/09/02 00:01:49;;;;;;;3.30;1.90;;;;;;;16.67;100.00;96683.85;108037;1279;22604;-91
2023/09/02 00:04:16;;;;;;;5.40;1.50;;;;;;;16.67;100.00;96678.01;108039;1283;22609;-91
2023/09/02 00:06:42;;;;;;;1.90;1.50;;;;;;;16.66;100.00;96677.23;108128;1260;22727;-91
2023/09/02 00:09:08;;;;;;;2.60;1.40;;;;;;;16.64;100.00;96670.86;108045;1283;22659;-91
2023/09/02 00:11:35;;;;;;;3.40;1.40;;;;;;;16.62;100.00;96666.61;108142;1279;25420;-90
2023/09/02 00:14:02;;;;;;;2.60;1.60;;;;;;;16.60;100.00;96665.69;108017;1276;22578;-90
2023/09/02 00:16:28;;;;;;;3.00;1.80;;;;;;;16.58;100.00;96664.34;108061;1280;22585;-91
2023/09/02 00:18:54;;;;;;;3.00;2.20;;;;;;;16.56;100.00;96661.14;108152;1282;23947;-90
2023/09/02 00:21:22;;;;;;;3.30;2.50;;;;;;;16.54;100.00;96661.23;108070;1277;23011;-91
2023/09/02 00:23:48;;;;;;;3.00;2.70;;;;;;;16.53;100.00;96668.50;107968;1283;22698;-90
2023/09/02 00:26:15;;;;;;;3.40;2.80;;;;;;;16.54;100.00;96669.67;108108;1280;24272;-90
2023/09/02 00:28:40;;;;;;;3.90;2.90;;;;;;;16.54;100.00;96669.22;108045;1276;22540;-91
2023/09/02 00:31:07;;;;;;;3.40;3.00;;;;;;;16.56;100.00;96668.60;108009;1282;22674;-89
2023/09/02 00:33:33;;;;;;;3.60;3.30;;;;;;;16.57;100.00;96668.64;108180;1280;22633;-90
2023/09/02 00:36:04;;;;;;;4.50;3.00;;;;;;;16.57;100.00;96666.37;107928;1283;23441;-90
2023/09/02 00:38:34;;;;;;;3.30;3.00;;;;;;;16.56;100.00;96667.19;108020;1283;22525;-90
2023/09/02 00:41:00;;;;;;;5.50;3.30;;;;;;;16.55;100.00;96661.91;108053;1283;22583;-90
2023/09/02 00:43:28;;;;;;;3.60;2.90;;;;;;;16.56;100.00;96664.45;108016;1280;25299;-91
2023/09/02 00:45:54;;;;;;;4.00;3.20;;;;;;;16.56;100.00;96660.98;108040;1277;25949;-91
2023/09/02 00:48:20;;;;;;;3.40;3.10;;;;;;;16.54;100.00;96661.44;107810;1283;22589;-90
2023/09/02 00:50:46;;;;;;;3.70;3.40;;;;;;;16.54;100.00;96663.21;107947;1281;23396;-91
2023/09/02 00:53:13;;;;;;;3.70;3.30;;;;;;;16.52;100.00;96660.80;107944;1283;25252;-91
2023/09/02 00:55:39;;;;;;;4.50;3.30;;;;;;;16.51;100.00;96664.15;107983;1275;22546;-92
2023/09/02 00:58:07;;;;;;;3.70;3.10;;;;;;;16.51;100.00;96659.80;107971;1280;23928;-91
2023/09/02 01:00:34;;;;;;;4.90;3.20;;;;;;;16.50;100.00;96654.41;107816;1277;22558;-90
2023/09/02 01:03:00;;;;;;;4.40;3.50;;;;;;;16.49;100.00;96653.64;108011;1276;22577;-91
2023/09/02 01:05:26;;;;;;;4.10;3.40;;;;;;;16.49;100.00;96650.14;107853;1283;25429;-90
2023/09/02 01:07:52;;;;;;;3.80;3.50;;;;;;;16.50;100.00;96651.63;107794;1277;26522;-91
2023/09/02 01:10:18;;;;;;;3.20;2.90;;;;;;;16.50;100.00;96650.70;107819;1283;22558;-90
2023/09/02 01:12:44;;;;;;;3.40;3.10;;;;;;;16.51;100.00;96652.34;107972;1279;22550;-91
2023/09/02 01:15:10;;;;;;;3.10;2.90;;;;;;;16.54;100.00;96650.73;107938;1282;22502;-91
2023/09/02 01:17:36;;;;;;;3.60;3.30;;;;;;;16.56;100.00;96647.34;107902;1282;22666;-91
2023/09/02 01:20:03;;;;;;;3.70;3.00;;;;;;;16.57;100.00;96646.80;108095;1282;23044;-91
2023/09/02 01:22:52;;;;;;;4.40;2.80;;;;;;;16.57;100.00;96645.15;107928;1281;22526;-90
2023/09/02 01:25:44;;;;;;;3.20;2.50;;;;;;;16.58;100.00;96645.42;108084;1280;25442;-90
2023/09/02 01:28:14;;;;;;;2.90;2.30;;;;;;;16.60;100.00;96645.39;107861;1276;23137;-91
2023/09/02 01:30:40;;;;;;;2.70;2.40;;;;;;;16.62;100.00;96645.10;107898;1277;22582;-91
2023/09/02 01:33:07;;;;;;;3.10;2.80;;;;;;;16.63;100.00;96644.20;107936;1280;22535;-91
2023/09/02 01:35:34;;;;;;;2.40;1.70;;;;;;;16.64;100.00;96645.31;107930;1283;25418;-91
2023/09/02 01:38:02;;;;;;;2.60;2.30;;;;;;;16.66;100.00;96647.81;108036;1276;22555;-91
2023/09/02 01:40:28;;;;;;;2.70;2.50;;;;;;;16.69;100.00;96647.20;108119;1283;24035;-91
2023/09/02 01:42:57;;;;;;;3.00;2.60;;;;;;;16.74;100.00;96652.96;107920;1282;22578;-90
2023/09/02 01:45:33;;;;;;;2.80;2.50;;;;;;;16.77;100.00;96648.77;108098;1276;22540;-90
2023/09/02 01:48:00;;;;;;;3.00;2.20;;;;;;;16.77;100.00;96645.20;108022;1280;22501;-91
2023/09/02 01:50:28;;;;;;;2.40;2.10;;;;;;;16.78;100.00;96644.88;107853;1283;22597;-90
2023/09/02 01:52:55;;;;;;;3.20;2.30;;;;;;;16.80;100.00;96643.81;107834;1282;24188;-91
2023/09/02 01:55:21;;;;;;;4.00;2.40;;;;;;;16.83;100.00;96640.39;107958;1277;23166;-91
2023/09/02 01:57:47;;;;;;;3.80;2.00;;;;;;;16.86;100.00;96640.69;107910;1277;23957;-91
2023/09/02 02:00:15;;;;;;;4.30;2.50;;;;;;;16.88;100.00;96642.64;107830;1281;22796;-91
2023/09/02 02:02:42;;;;;;;1.90;1.70;;;;;;;16.89;100.00;96636.25;107916;1283;22557;-90
2023/09/02 02:05:16;;;;;;;2.60;2.40;;;;;;;16.90;100.00;96640.29;107967;1283;22625;-92
2023/09/02 02:07:50;;;;;;;3.70;2.00;;;;;;;16.92;100.00;96647.63;107939;1276;22691;-90
2023/09/02 02:10:16;;;;;;;2.90;2.10;;;;;;;16.91;100.00;96648.96;108045;1276;22490;-91
2023/09/02 02:12:46;;;;;;;2.50;2.00;;;;;;;16.92;100.00;96650.65;108123;1280;23949;-91
2023/09/02 02:15:12;;;;;;;3.80;2.10;;;;;;;16.93;100.00;96650.70;108113;1283;23139;-91
2023/09/02 02:17:44;;;;;;;2.60;2.20;;;;;;;16.96;100.00;96649.82;108067;1283;22735;-89
2023/09/02 02:20:10;;;;;;;2.50;2.10;;;;;;;16.98;100.00;96656.30;107963;1282;22551;-91
2023/09/02 02:22:37;;;;;;;2.50;2.00;;;;;;;16.99;100.00;96651.76;107854;1276;22560;-91
2023/09/02 02:25:04;;;;;;;3.10;2.20;;;;;;;17.00;100.00;96653.52;108032;1266;25442;-91
2023/09/02 02:27:32;;;;;;;2.60;2.40;;;;;;;17.03;100.00;96651.45;108047;1276;22557;-91
2023/09/02 02:29:58;;;;;;;3.40;2.10;;;;;;;17.06;100.00;96651.48;107897;1280;22541;-91
2023/09/02 02:32:25;;;;;;;3.90;1.90;;;;;;;17.08;100.00;96649.50;108031;1284;22684;-90
2023/09/02 02:34:51;;;;;;;2.20;2.00;;;;;;;17.06;100.00;96645.15;108042;1276;22523;-91
2023/09/02 02:37:16;;;;;;;2.70;2.40;;;;;;;17.04;100.00;96650.66;108088;1280;22659;-91
2023/09/02 02:39:44;;;;;;;2.90;2.10;;;;;;;17.03;100.00;96651.89;108280;1276;22562;-91
2023/09/02 02:42:11;;;;;;;2.70;2.10;;;;;;;17.02;100.00;96649.11;108148;1279;22544;-91
2023/09/02 02:44:37;;;;;;;2.10;1.90;;;;;;;16.99;100.00;96653.59;108195;1277;22603;-91
2023/09/02 02:47:05;;;;;;;2.40;2.10;;;;;;;16.99;100.00;96647.64;108146;1283;25271;-91
2023/09/02 02:49:32;;;;;;;2.60;2.10;;;;;;;16.99;100.00;96648.24;108108;1283;23248;-90
2023/09/02 02:52:01;;;;;;;5.60;2.60;;;;;;;17.00;100.00;96651.35;107998;1276;22564;-91
2023/09/02 02:54:27;;;;;;;4.60;2.20;;;;;;;17.02;100.00;96645.28;108224;1276;22587;-90
2023/09/02 02:56:55;;;;;;;2.90;2.40;;;;;;;17.05;100.00;96646.10;108256;1283;22585;-91
2023/09/02 02:59:23;;;;;;;2.40;2.20;;;;;;;17.06;100.00;96649.23;108046;1283;22549;-91
2023/09/02 03:01:51;;;;;;;2.20;2.00;;;;;;;17.07;100.00;96648.41;108052;1277;22768;-90
2023/09/02 03:04:19;;;;;;;3.40;2.40;;;;;;;17.08;100.00;96648.10;108220;1280;24188;-91
2023/09/02 03:06:51;;;;;;;2.00;1.70;;;;;;;17.07;100.00;96650.05;108203;1270;25439;-91
2023/09/02 03:09:17;;;;;;;3.20;2.10;;;;;;;17.06;100.00;96652.95;108199;1278;23072;-90
2023/09/02 03:11:44;;;;;;;7.30;3.30;;;;;;;17.06;100.00;96650.92;108277;1280;22785;-91
2023/09/02 03:14:15;;;;;;;2.20;1.90;;;;;;;17.06;100.00;96654.80;108031;1282;22536;-92
2023/09/02 03:16:50;;;;;;;2.30;2.10;;;;;;;17.06;100.00;96662.27;108125;1280;22581;-90
2023/09/02 03:19:20;;;;;;;3.90;2.50;;;;;;;17.08;100.00;96657.98;108188;1277;22636;-90
2023/09/02 03:21:46;;;;;;;3.30;2.10;;;;;;;17.10;100.00;96660.41;108139;1276;23081;-91
2023/09/02 03:24:12;;;;;;;3.70;2.20;;;;;;;17.10;100.00;96659.20;108141;1282;22598;-90
2023/09/02 03:26:38;;;;;;;2.70;2.40;;;;;;;17.08;100.00;96661.90;108051;1283;24292;-91
2023/09/02 03:29:04;;;;;;;2.00;1.80;;;;;;;17.07;100.00;96667.64;108108;1276;22566;-91
2023/09/02 03:31:31;;;;;;;3.30;2.20;;;;;;;17.06;100.00;96666.51;108047;1277;24224;-90
2023/09/02 03:43:52;;;;;;;2.70;2.20;;;;;;;17.20;100.00;96677.76;105653;1299;545440;-90
2023/09/02 03:46:25;;;;;;;2.90;2.20;;;;;;;17.19;100.00;96684.39;108268;1284;25322;-90
2023/09/02 03:48:54;;;;;;;2.90;2.10;;;;;;;17.20;100.00;96689.63;108243;1283;22482;-92
2023/09/02 03:51:22;;;;;;;2.70;2.20;;;;;;;17.22;100.00;96690.77;108153;1281;22656;-91
2023/09/02 03:54:09;;;;;;;4.40;2.20;;;;;;;17.24;100.00;96691.45;108240;1281;22533;-90
2023/09/02 03:56:39;;;;;;;3.60;1.80;;;;;;;17.25;100.00;96687.05;108221;1278;166958;-91
2023/09/02 03:59:07;;;;;;;2.00;1.70;;;;;;;17.25;100.00;96691.49;108610;1273;25602;-91
2023/09/02 04:01:36;;;;;;;2.60;2.10;;;;;;;17.26;100.00;96688.45;108128;1282;22690;-90
2023/09/02 04:04:04;;;;;;;4.00;2.00;;;;;;;17.27;100.00;96692.98;108172;1281;22485;-91
2023/09/02 04:06:32;;;;;;;2.40;2.20;;;;;;;17.29;100.00;96694.69;108523;1274;22565;-90
2023/09/02 04:08:59;;;;;;;5.40;2.90;;;;;;;17.28;100.00;96700.60;108350;1277;24513;-90
2023/09/02 04:11:28;;;;;;;3.90;3.50;;;;;;;17.22;100.00;96708.91;108292;1281;23369;-90
2023/09/02 04:13:55;;;;;;;6.00;4.30;;;;;;;17.15;100.00;96712.30;108408;1281;24182;-91
2023/09/02 04:16:23;;;;;;;4.60;4.20;;;;;;;17.09;100.00;96719.13;108581;1280;22496;-89
2023/09/02 04:18:50;;;;;;;5.00;4.40;;;;;;;17.06;100.00;96723.47;108313;1280;22945;-90
2023/09/02 04:21:21;;;;;;;6.60;5.10;;;;;;;17.02;100.00;96726.81;108192;1281;21977;-91
2023/09/02 04:23:48;;;;;;;5.50;4.90;;;;;;;17.03;100.00;96733.15;108469;1276;24318;-90
2023/09/02 04:26:21;;;;;;;8.10;5.80;;;;;;;17.02;100.00;96732.55;108396;1277;22629;-90
2023/09/02 04:28:55;;;;;;;9.00;5.60;;;;;;;17.02;100.00;96736.91;108390;1275;23645;-91
